Chiu & Partners 趙不渝 馬國強律師事務所

start date:
end date:
include new appointments after start date

Role: Lawyer

This is a continuing role. Total returns are measured from the latest of the start date, the appointment date and 3-Jan-1994 until the earliest of the end date, the resignation/removal date and the last trading date. CAGR is the annualised return and is not shown for periods under 180 days. Relative returns are to the Tracker Fund of HK (2800), starting from the latest of 12-Nov-1999, the appointment date and the chosen start date.

Some data are hidden to fit your display. Rotate?

Client Added Removed Total
return
CAGR
total
return
CAGR
relative
return
1 Anhui Conch Cement Company Limited 1998-04-22 11,556.32% 24.89% 23.51%
2 PERENNIAL INTERNATIONAL LIMITED 1998-05-04 2000-05-09 4.75% 2.33%
3 AVIC Joy Holdings (HK) Limited 1998-05-08 1999-07-23 -66.51% -59.58%
4 Zhuhai Holdings Investment Group Limited 1998-05-13 -6.74% -0.33% -4.19%
5 Beijing Properties (Holdings) Limited 1998-05-22 2000-05-26 -24.72% -13.16% 68.61%
6 Wai Chun Group Holdings Limited 1998-07-28 2000-04-18 -5.97% -3.50%
7 VICTORY CITY INTERNATIONAL HOLDINGS LIMITED 1998-08-12 -24.86% -1.34% -9.07%
8 Central Wealth Group Holdings Limited 1998-08-28 2004-07-21 -72.92% -19.87% -26.57%
9 Huarong International Financial Holdings Limited 1998-09-26 2011-07-27 -65.28% -7.92% -19.47%
10 China Dynamics (Holdings) Limited 1998-09-30 2002-07-26 11.00% 2.77% -8.82%
11 ASIA ALUMINUM HOLDINGS LIMITED 1998-10-15 2001-10-26 -29.07% -10.71% 24.06%
12 Kai Yuan Holdings Limited 1998-10-23 2002-03-08 -60.48% -24.06% -5.36%
13 China Sandi Holdings Limited 1998-11-17 2003-10-27 298.07% 32.54% 6.89%
14 BAKER GROUP INTERNATIONAL HOLDINGS LIMITED 1998-11-19 2000-11-23 -66.12% -42.25% -88.85%
15 China Display Optoelectronics Technology Holdings Limited 1998-11-25 2003-10-29 217.02% 26.40% 9.86%
16 Good Resources Holdings Limited 1999-02-12 2000-11-23 292.51% 115.62% 77.04%
17 EXTRAWELL PHARMACEUTICAL HOLDINGS LIMITED 1999-02-25 -14.41% -0.75% -10.24%
18 VEEKO INTERNATIONAL HOLDINGS LIMITED 1999-03-31 165.16% 4.89% -2.76%
19 JINGWEI TEXTILE MACHINERY COMPANY LIMITED 1999-04-19 2012-03-28 1,489.75% 23.83% 10.76%
20 China Finance Investment Holdings Limited 1999-05-18 2000-05-27 -24.28% -23.78% 93.11%
21 Vision Values Holdings Limited 1999-05-18 2000-05-25 233.56% 225.31% 161.92%
22 Landsea Green Group Co., Ltd. 1999-05-21 2001-04-09 522.22% 163.56% 55.70%
23 SHENZHEN INTERNATIONAL HOLDINGS LIMITED 1999-05-21 2000-05-30 347.37% 330.28% 1,330.35%
24 Beautiful China Holdings Company Limited 1999-05-25 -97.42% -16.47% -21.47%
25 Green Leader Holdings Group Limited 1999-06-22 2000-05-27 8.12% 9.17% 100.66%
26 CULTURECOM HOLDINGS LIMITED 1999-08-25 2000-08-28 240.63% 236.41% 149.58%
27 SUNWAY INTERNATIONAL HOLDINGS LIMITED 1999-08-25 2005-01-24 -72.97% -21.54% -29.76%
28 STYLAND HOLDINGS LIMITED 1999-08-26 2000-08-03 106.23% 116.15% 24.59%
29 GRAND FIELD GROUP HOLDINGS LIMITED 1999-09-02 2002-04-29 -56.97% -28.22% -35.19%
30 CHINA WATER AFFAIRS GROUP LIMITED 1999-09-28 2003-07-30 -99.40% -74.01% -73.32%
31 CHINA RARE EARTH HOLDINGS LIMITED 1999-10-05 -9.95% -0.52% -6.10%
32 China Tonghai International Financial Limited 1999-10-05 2000-07-27 -78.67% -85.14% -90.29%
33 China Gem Holdings Limited 1999-11-08 2004-10-25 -87.29% -34.95% -35.42%
34 PINE TECHNOLOGY HOLDINGS LIMITED 1999-11-16 2000-09-20 -30.46% -35.84% -39.33%
35 China Brilliant Global Limited 2000-03-21 2016-06-27 -90.43% -13.44% -16.72%
36 Viva China Holdings Limited 2000-03-30 2010-03-21 -66.52% -10.45% -15.34%
37 Panda Green Energy Group Limited 2000-03-31 2000-08-18 191.37%
38 ASIA TELE-NET AND TECHNOLOGY CORPORATION LIMITED 2000-07-05 2002-07-24 -76.72% -50.88% -39.26%
39 SHANXI CENTRAL PHARMACEUTICAL INTERNATIONAL LIMITED 2000-07-14 2001-09-24 42.82% 35.74% 125.33%
40 AVIC Joy Holdings (HK) Limited 2000-08-24 2002-09-24 -56.10% -32.64% -11.61%
41 Sun International Group Limited 2000-12-05 2002-06-25 -80.33% -65.50% -56.98%
42 TONGDA GROUP HOLDINGS LIMITED 2000-12-12 2011-03-16 1,031.57% 26.77% 17.77%
43 China Technology Solar Power Holdings Limited (KY) 2000-12-22 2003-06-18 -72.26% -40.71% -33.05%
44 ITE (HOLDINGS) LIMITED 2001-02-15 2001-06-12 35.00%
45 GLOBAL BIO-CHEM TECHNOLOGY GROUP COMPANY LIMITED 2001-03-07 -71.93% -6.63% -12.87%
46 Xinyang Maojian Group Limited 2001-04-18 2004-10-18 44.58% 11.23% 9.28%
47 MOBICON GROUP LIMITED 2001-04-24 2001-07-17 -7.41%
48 Energy International Investments Holdings Limited 2001-07-16 2004-04-29 -68.29% -34.04% -36.24%
49 Sheng Yuan Holdings Limited 2001-08-24 2007-08-27 -90.29% -32.17% -42.06%
50 Superb Summit International Group Limited 2001-09-06 2002-03-20 98.15% 291.53% 171.65%
51 HKC INTERNATIONAL HOLDINGS LIMITED 2001-10-30 2002-07-19 -51.92% -65.41% -65.35%
52 Yue Da International Holdings Limited 2001-11-19 2002-04-15 -13.98%
53 HENG TAI CONSUMABLES GROUP LIMITED 2001-11-20 2002-09-20 -32.41% -38.84% -26.02%
54 CHINA WATER INDUSTRY GROUP LIMITED 2002-01-08 2005-04-25 -90.85% -51.88% -56.57%
55 V.S. INTERNATIONAL GROUP LIMITED 2002-01-28 -46.31% -3.47% -11.38%
56 CGN Mining Company Limited 2002-01-30 2004-03-02 135.07% 51.29% 27.86%
57 Combest Holdings Limited 2002-01-31 2002-09-19 -25.86% -38.75% -30.07%
58 FU CHEONG INTERNATIONAL HOLDINGS LIMITED 2002-03-13 2006-06-28 -80.81% -90.07% -88.61%
59 China Billion Resources Limited 2002-03-19 2010-04-29 -68.91% -13.41% -22.37%
60 China Environmental Technology Holdings Limited 2002-03-19 2002-07-15 13.13%
61 RNA HOLDINGS LIMITED (BM) 2002-03-22 2005-09-26 -93.25% -89.65% -88.90%
62 Beijing Enterprises Medical and Health Industry Group Limited 2002-04-16 2003-04-24 -66.74% -66.97% -57.15%
63 SHANGHAI ZENDAI PROPERTY LIMITED 2002-04-25 2003-04-23 -22.14% -22.26% 0.25%
64 Sino Prosper (Group) Holdings Limited 2002-04-30 -98.07% -20.35% -26.41%
65 GET NICE HOLDINGS LIMITED 2002-05-24 2010-07-14 -26.10% -3.66% -13.41%
66 GLOBAL TREND INTELLIGENT TECHNOLOGIES LIMITED 2002-06-18 2003-04-28 -36.00% -41.50% -26.55%
67 Changmao Biochemical Engineering Company Limited 2002-06-20 2003-03-14 -57.79% -70.37% -63.39%
68 Polyard Petroleum International Group Limited 2002-07-05 2008-03-05 50.00% 7.44% -9.28%
69 FUJIKON INDUSTRIAL HOLDINGS LIMITED 2002-07-12 241.09% 7.40% -1.45%
70 KOALA Financial Group Limited 2002-07-15 2003-03-28 -32.00% -42.82% -30.78%
71 Shanghai Jiaoda Withub Information Industrial Company Limited 2002-07-25 2010-03-25 -37.69% -6.00% -17.05%
72 Blockchain Group Company Limited 2002-08-20 2004-01-16 101.44% 66.12% 32.30%
73 WE Solutions Limited (KY) 2002-08-22 2004-01-20 -32.91% -25.12% -42.73%
74 SUGA INTERNATIONAL HOLDINGS LIMITED 2002-09-06 2004-06-29 35.08% 18.41% -1.03%
75 Hua Han Health Industry Holdings Limited 2002-11-28 192.83% 8.10% -1.77%
76 OP Financial Limited 2003-03-07 2011-06-20 141.74% 11.29% -2.87%
77 ZHEJIANG GLASS COMPANY, LIMITED 2003-04-15 2013-05-31 148.27% 13.78% -2.89%
78 Hybrid Kinetic Group Limited 2003-04-29 2004-04-28 20.23% 20.24% -16.20%
79 Future World Financial Holdings Limited 2003-06-10 2004-04-06 6.25% 8.26% -28.99%
80 China City Infrastructure Group Limited 2003-06-12 2004-04-26 -35.60% -40.86% -56.29%
81 Yunfeng Financial Group Limited 2003-06-13 2006-04-25 -66.04% -31.39% -44.58%
82 INNO-TECH HOLDINGS LIMITED 2003-06-23 2004-06-30 -78.65% -77.96% -82.92%
83 Dahe Media Co., Ltd. 2003-10-31 2005-03-24 -50.65% -40.49% -46.77%
84 Aurum Pacific (China) Group Limited 2003-12-30 2004-03-26 -10.71%
85 EcoGreen International Group Limited 2004-02-27 2006-04-12 -0.69% -0.33% -12.45%
86 Youth Champ Financial Group Holdings Limited 2004-03-22 2004-07-21 -0.97%
87 V1 Group Limited (BM) 2004-04-22 2008-04-18 7.27% 1.78% -16.79%
88 China Biotech Services Holdings Limited 2004-06-01 2011-12-16 -65.24% -13.15% -20.28%
89 FDG Electric Vehicles Limited 2004-07-26 2005-07-18 -32.00% -32.60% -44.91%
90 TEXHONG TEXTILE GROUP LIMITED 2004-11-30 1,084.27% 18.20% 9.57%
91 BOE Varitronix Limited 2005-04-18 2006-04-10 -26.15% -26.66% -42.65%
92 Welling Holding Limited 2005-04-22 2006-04-18 9.77% 9.89% -12.07%
93 Green Leader Holdings Group Limited 2005-04-26 2006-04-13 21.21% 22.09% -1.22%
94 China Healthwise Holdings Limited 2005-07-27 2007-07-23 519.71% 150.35% 92.99%
95 Neo Telemedia Limited 2005-09-23 2007-09-12 -11.76% -6.16% -28.38%
96 CMMB Vision Holdings Limited 2005-09-28 2011-03-30 -90.05% -34.43% -41.38%
97 Sincere Watch (Hong Kong) Limited 2005-09-30 2006-05-10 -20.00% -32.81% -50.78%
98 JU TENG INTERNATIONAL HOLDINGS LIMITED 2005-10-25 90.46% 4.75% -2.89%
99 Capital VC Limited 2005-10-28 2012-09-27 -92.43% -31.14% -36.85%
100 Xiwang Property Holdings Company Limited 2006-04-07 2013-03-26 -80.22% -20.75% -26.46%
101 Good Friend International Holdings Inc. 2006-04-18 2007-04-20 277.27% 274.89% 195.23%
102 Green Energy Group Limited 2006-04-21 2010-04-21 -8.43% -2.18% -10.65%
103 Youth Champ Financial Group Holdings Limited 2006-05-25 2017-06-15 456.87% 16.89% 8.45%
104 Fortune Sun (China) Holdings Limited 2006-06-23 -38.62% -3.63% -10.07%
105 DTXS Silk Road Investment Holdings Company Limited 2006-11-24 2016-03-30 160.29% 10.78% 6.48%
106 Embry Holdings Limited 2006-12-05 2009-04-16 -57.95% -31.08% -26.91%
107 Yue Da International Holdings Limited 2007-04-10 2015-03-30 -89.37% -24.52% -28.64%
108 China Infrastructure Investment Limited 2007-04-20 2008-04-28 88.68% 85.90% 45.80%
109 Stella International Holdings Limited 2007-06-22 29.95% 2.17% -2.40%
110 Uni-Bio Science Group Limited 2007-06-29 2009-07-27 -85.01% -59.88% -59.88%
111 Global Sweeteners Holdings Limited 2007-09-10 -94.52% -21.49% -24.21%
112 China Starch Holdings Limited 2007-09-12 -15.92% -1.44% -4.46%
113 Qunxing Paper Holdings Company Limited 2007-09-17 2009-03-18 -78.27% -64.87% -42.69%
114 Zhong An Group Limited (KY) 2007-10-31 2011-03-31 -67.89% -28.55% -27.11%
115 China Gem Holdings Limited 2007-11-23 2015-10-20 -93.22% -28.84% -29.86%
116 Pan Asia Environmental Protection Group Limited 2007-12-10 -55.34% -6.63% -9.32%
117 Delta Networks, Inc. 2008-03-06 2009-09-28 17.16% 10.86% 11.20%
118 Common Splendor International Health Industry Group Limited 2008-03-07 2013-03-28 98.68% 14.75% 12.02%
119 Xingfa Aluminium Holdings Limited 2008-03-17 2009-04-17 -24.17% -23.25% 5.94%
120 STYLAND HOLDINGS LIMITED 2008-07-21 2013-06-26 105.97% 60.34% 42.88%
121 Hong Kong ChaoShang Group Limited (BM) 2008-07-23 2011-06-22 25.29% 8.05% 6.61%
122 SIM TECHNOLOGY GROUP LIMITED 2009-03-05 2011-03-03 209.79% 76.35% 24.92%
123 Landsea Green Group Co., Ltd. 2009-03-06 2014-03-09 1,115.03% 64.75% 41.08%
124 Hybrid Kinetic Group Limited 2009-04-23 -68.29% -10.45% -17.82%
125 Huscoke Holdings Limited 2009-04-28 2017-03-29 -88.32% -23.75% -30.71%
126 China Public Procurement Limited 2009-04-30 -99.40% -38.87% -43.79%
127 MODERN MEDIA HOLDINGS LIMITED 2009-08-28 -74.71% -12.81% -17.55%
128 China All Access (Holdings) Limited 2009-09-04 -83.40% -16.42% -20.79%
129 China Lilang Limited 2009-09-11 2012-03-14 145.25% 43.86% 39.57%
130 China Tontine Wines Group Limited 2009-11-05 -89.49% -20.47% -24.26%
131 FUTONG TECHNOLOGY DEVELOPMENT HOLDINGS LIMITED 2009-11-24 2010-03-31 -6.81%
132 Chu Kong Petroleum and Natural Gas Steel Pipe Holdings Limited 2010-01-28 2011-03-29 -18.18% -16.30% -28.19%
133 China SCE Group Holdings Limited 2010-04-15 134.56% 9.46% 3.86%
134 New Times Energy Corporation Limited 2010-04-27 2012-04-01 -84.67% -62.25% -62.73%
135 Sparkle Roll Group Limited 2010-06-17 -65.14% -10.76% -16.12%
136 Realord Group Holdings Limited 2010-06-18 2015-03-30 1,967.51% 88.44% 75.25%
137 China Environmental Technology Holdings Limited 2010-06-22 2012-06-27 -61.75% -37.93% -37.32%
138 Cybernaut International Holdings Company Limited 2010-06-25 2017-03-31 -39.41% -7.17% -12.54%
139 Doyen International Holdings Limited 2010-07-26 2015-03-26 -62.96% -19.18% -24.28%
140 China Sanjiang Fine Chemicals Company Limited 2010-09-03 2018-03-26 37.70% 4.34% -3.32%
141 Magic Holdings International Limited 2010-09-10 2014-04-10 73.40% 16.94% 13.24%
142 Hang Pin Living Technology Company Limited 2010-09-17 2015-06-30 227.71% 28.50% 20.60%
143 China ZhengTong Auto Services Holdings Limited 2010-11-29 -56.57% -9.06% -13.37%
144 China 33 Media Group Limited 2011-02-22 2016-03-23 -89.28% -35.66% -36.16%
145 Zhengye International Holdings Company Limited 2011-03-14 2014-03-21 -45.17% -19.33% -19.76%
146 Tang Palace (China) Holdings Limited 2011-04-07 2013-03-22 -28.21% -15.82% -15.90%
147 Best Food Holding Company Limited 2011-05-31 2012-02-27 21.50% 33.68% 38.88%
148 China Dredging Environment Protection Holdings Limited 2011-06-08 -95.14% -30.68% -34.58%
149 Great Harvest Maeta Group Holdings Limited 2011-06-28 31.67% 3.40% -2.17%
150 Huajun International Group Limited 2011-06-29 2015-06-29 220.88% 33.84% 24.34%
151 Tempus Holdings Limited 2011-12-01 2012-06-17 -68.67% -89.89% -91.16%
152 Lerthai Group Limited 2012-03-08 2013-03-25 144.75% 135.33% 114.50%
153 Uni-President China Holdings Ltd. 2012-03-27 2013-03-26 69.24% 69.54% 55.31%
154 Zhong An Group Limited (KY) 2012-03-27 -52.01% -9.35% -15.04%
155 Flying Financial Service Holdings Limited 2012-04-20 2013-03-19 -13.85% -15.82% -24.68%
156 BII Railway Transportation Technology Holdings Company Limited 2012-09-26 -20.22% -3.18% -9.70%
157 KFM Kingdom Holdings Limited 2012-09-28 -45.93% -8.49% -14.32%
158 C&D International Investment Group Limited 2012-11-30 2016-03-21 540.37% 76.56% 76.03%
159 Time Watch Investments Limited 2013-01-24 -5.21% -0.81% -6.14%
160 Embry Holdings Limited 2013-03-25 -48.66% -9.77% -15.17%
161 China Saite Group Company Limited 2013-10-22 -76.78% -21.98% -26.27%
162 NOVA Group Holdings Limited 2013-10-25 2017-09-22 597.75% 65.05% 51.79%
163 YuanShengTai Dairy Farm Limited 2013-11-14 2018-03-27 -86.15% -36.65% -42.19%
164 China MeiDong Auto Holdings Limited 2013-11-22 2014-03-25 -11.63%
165 China Conch Venture Holdings Limited 2013-12-09 92.39% 12.05% 5.48%
166 NANJING SINOLIFE UNITED COMPANY LIMITED 2013-12-31 -88.93% -32.13% -36.14%
167 China Wood Optimization (Holding) Limited 2014-03-14 54.80% 8.24% 0.65%
168 China New City Commercial Development Limited 2014-06-17 -38.22% -8.85% -14.04%
169 Qianhai Health Holdings Limited 2014-06-17 -95.40% -44.49% -47.69%
170 Century Sage Scientific Holdings Limited 2014-06-24 2015-03-25 32.71% 48.59% 37.25%
171 YTO Express (International) Holdings Limited 2014-06-30 80.22% 12.01% 5.67%
172 Million Stars Holdings Limited 2015-02-05 2016-09-21 -82.01% -65.61% -66.17%
173 CHINA AIRCRAFT LEASING GROUP HOLDINGS LIMITED 2015-03-26 2017-03-24 1.30% 0.65% -2.28%
174 Synergy Group Holdings International Limited 2015-06-18 -84.38% -35.34% -37.50%
175 Artini Holdings Limited 2015-06-19 2016-06-28 -43.97% -43.12% -28.22%
176 AUX International Holdings Limited 2015-06-19 -81.85% -33.04% -35.22%
177 Fulum Group Holdings Limited 2015-06-24 2016-06-30 -19.06% -18.75% 2.16%
178 Genertec Universal Medical Group Company Limited 2015-06-24 25.10% 5.47% -0.90%
179 FSE Services Group Limited 2015-11-26 2016-09-22 21.31% 27.87% 9.81%
180 Newton Resources Ltd 2016-03-23 -8.00% -2.36% -12.36%
181 HongDa Financial Holding Limited 2016-03-24 2017-03-28 -1.72% -1.71% -20.42%
182 Tsaker Chemical Group Limited 2016-03-29 2018-03-28 131.90% 52.41% 21.38%
183 China Silver Group Limited 2016-03-31 -38.31% -12.99% -21.79%
184 Success Dragon International Holdings Limited 2016-05-16 -84.86% -43.12% -49.71%
185 KWOON CHUNG BUS HOLDINGS LIMITED 2016-06-30 1.14% 0.35% -9.94%
186 Prosper Construction Holdings Limited 2016-06-30 2017-03-28 -38.94% -51.22% -58.90%
187 China Art Financial Holdings Limited 2016-10-27 28.81% 9.24% 0.26%
188 Clifford Modern Living Holdings Limited 2016-10-27 0.61% 0.21% -8.03%
189 Hebei Yichen Industrial Group Corporation Limited 2016-12-09 7.97% 2.83% -7.55%
190 FUJIAN NUOQI Co., Ltd 2017-01-10
191 HKBridge Financial Holdings Limited 2017-03-10 -78.78% -45.82% -50.17%
192 Huarong Investment Stock Corporation Limited 2017-03-13 -73.33% -40.80% -45.34%
193 ZMFY Automobile Glass Services Limited 2017-03-21 2019-03-24 -11.11% -5.72% -16.28%
194 Yongsheng Advanced Materials Company Limited 2017-03-23 36.55% 13.30% 5.39%
195 Xin Point Holdings Limited 2017-06-16 -35.76% -18.01% -22.01%
196 Dongguang Chemical Limited 2017-06-28 16.70% 7.30% 2.59%
197 FURNIWEB HOLDINGS LIMITED 2017-09-29 248.44% 91.10% 92.14%
198 United Strength Power Holdings Limited 2017-09-29 2018-03-26 32.24%
199 Ruifeng Power Group Company Limited 2017-12-19 2.07% 1.21% 6.19%
200 Sling Group Holdings Limited 2017-12-29 2018-03-26 -37.93%
201 OneForce Holdings Limited 2018-02-12 2018-06-22 -43.14%
202 Legend Strategy International Holdings Group Company Limited 2018-03-07 -56.19% -41.52% -38.90%
203 FUTONG TECHNOLOGY DEVELOPMENT HOLDINGS LIMITED 2018-03-23 -31.58% -22.42% -18.76%
204 AUTO ITALIA HOLDINGS LIMITED 2018-03-28 -39.00% -28.37% -25.29%
205 RISECOMM GROUP HOLDINGS LIMITED 2018-03-28 -86.39% -73.98% -72.86%
206 Youyuan International Holdings Limited 2018-03-29 -91.82% -83.48% -82.51%
207 Zhaobangji Properties Holdings Limited 2018-06-29 -11.93% -9.84% -7.03%
208 Bamboos Health Care Holdings Limited 2018-08-24 -28.52% -26.86% -26.77%
209 Tokyo Chuo Auction Holdings Limited 2018-09-27 -33.78% -35.45% -40.78%
210 Sino Gas Holdings Group Limited 2018-12-14 2.11% 2.91% -6.42%
211 Metropolis Capital Holdings Limited 2019-03-20 -25.32% -43.98% -34.89%
212 Flying Financial Service Holdings Limited 2019-03-25 -13.46%
Average 0.06% -1.38%


Sign up for our free newsletter

Recommend Webb-site to a friend

Copyright & disclaimer, Privacy policy

Back to top